sensor_id;sensor_type;location;lat;lon;timestamp;pressure;altitude;pressure_sealevel;temperature;humidity
77889;BME280;67082;41.704;44.768;2023-03-08T00:01:28;96103.22;;;8.90;63.47
77889;BME280;67082;41.704;44.768;2023-03-08T00:03:59;96112.84;;;8.82;63.54
77889;BME280;67082;41.704;44.768;2023-03-08T00:06:27;96110.72;;;8.90;64.23
77889;BME280;67082;41.704;44.768;2023-03-08T00:08:57;96114.88;;;8.98;63.86
77889;BME280;67082;41.704;44.768;2023-03-08T00:11:26;96118.06;;;8.96;64.38
77889;BME280;67082;41.704;44.768;2023-03-08T00:13:56;96115.22;;;9.00;63.92
77889;BME280;67082;41.704;44.768;2023-03-08T00:16:24;96103.09;;;8.78;65.30
77889;BME280;67082;41.704;44.768;2023-03-08T00:18:53;96120.31;;;8.85;64.71
77889;BME280;67082;41.704;44.768;2023-03-08T00:21:21;96123.41;;;8.87;65.66
77889;BME280;67082;41.704;44.768;2023-03-08T00:23:51;96125.50;;;8.83;65.47
77889;BME280;67082;41.704;44.768;2023-03-08T00:26:22;96116.59;;;8.92;64.65
77889;BME280;67082;41.704;44.768;2023-03-08T00:28:50;96125.31;;;8.90;64.85
77889;BME280;67082;41.704;44.768;2023-03-08T00:31:20;96121.97;;;8.99;64.85
77889;BME280;67082;41.704;44.768;2023-03-08T00:33:53;96132.13;;;9.02;65.09
77889;BME280;67082;41.704;44.768;2023-03-08T00:36:21;96114.50;;;8.80;64.80
77889;BME280;67082;41.704;44.768;2023-03-08T00:38:50;96129.97;;;8.93;65.11
77889;BME280;67082;41.704;44.768;2023-03-08T00:41:19;96124.53;;;8.90;65.28
77889;BME280;67082;41.704;44.768;2023-03-08T00:43:49;96114.84;;;8.82;65.76
77889;BME280;67082;41.704;44.768;2023-03-08T00:46:18;96123.84;;;8.86;66.06
77889;BME280;67082;41.704;44.768;2023-03-08T00:48:46;96126.34;;;8.80;65.52
77889;BME280;67082;41.704;44.768;2023-03-08T00:51:19;96119.88;;;8.87;64.81
77889;BME280;67082;41.704;44.768;2023-03-08T00:53:48;96128.84;;;8.91;65.31
77889;BME280;67082;41.704;44.768;2023-03-08T00:56:17;96140.06;;;8.84;66.07
77889;BME280;67082;41.704;44.768;2023-03-08T00:58:45;96139.03;;;8.78;65.98
77889;BME280;67082;41.704;44.768;2023-03-08T01:01:17;96134.69;;;8.77;66.55
77889;BME280;67082;41.704;44.768;2023-03-08T01:03:49;96129.69;;;8.72;66.65
77889;BME280;67082;41.704;44.768;2023-03-08T01:06:17;96135.84;;;8.79;66.77
77889;BME280;67082;41.704;44.768;2023-03-08T01:08:46;96143.00;;;8.77;66.76
77889;BME280;67082;41.704;44.768;2023-03-08T01:11:19;96144.72;;;8.71;66.91
77889;BME280;67082;41.704;44.768;2023-03-08T01:13:49;96138.25;;;8.77;66.88
77889;BME280;67082;41.704;44.768;2023-03-08T01:16:20;96151.47;;;8.86;65.87
77889;BME280;67082;41.704;44.768;2023-03-08T01:18:50;96150.28;;;8.87;65.82
77889;BME280;67082;41.704;44.768;2023-03-08T01:21:20;96145.47;;;8.71;66.63
77889;BME280;67082;41.704;44.768;2023-03-08T01:23:48;96152.22;;;8.70;66.99
77889;BME280;67082;41.704;44.768;2023-03-08T01:26:19;96149.81;;;8.72;67.48
77889;BME280;67082;41.704;44.768;2023-03-08T01:28:48;96139.94;;;8.71;67.13
77889;BME280;67082;41.704;44.768;2023-03-08T01:31:20;96155.50;;;8.81;66.23
77889;BME280;67082;41.704;44.768;2023-03-08T01:33:53;96160.28;;;8.81;66.43
77889;BME280;67082;41.704;44.768;2023-03-08T01:36:23;96153.88;;;8.84;66.59
77889;BME280;67082;41.704;44.768;2023-03-08T01:38:52;96157.50;;;8.81;66.49
77889;BME280;67082;41.704;44.768;2023-03-08T01:41:29;96168.66;;;8.77;66.78
77889;BME280;67082;41.704;44.768;2023-03-08T01:43:58;96173.81;;;8.75;66.19
77889;BME280;67082;41.704;44.768;2023-03-08T01:49:23;96172.50;;;8.64;67.34
77889;BME280;67082;41.704;44.768;2023-03-08T01:52:05;96191.38;;;8.65;67.94
77889;BME280;67082;41.704;44.768;2023-03-08T01:54:48;96189.63;;;8.75;67.02
77889;BME280;67082;41.704;44.768;2023-03-08T01:59:55;96194.13;;;8.65;67.78
77889;BME280;67082;41.704;44.768;2023-03-08T02:02:30;96202.88;;;8.64;67.55
77889;BME280;67082;41.704;44.768;2023-03-08T02:05:01;96196.47;;;8.67;67.66
77889;BME280;67082;41.704;44.768;2023-03-08T02:07:30;96194.34;;;8.74;67.65
77889;BME280;67082;41.704;44.768;2023-03-08T02:09:58;96189.19;;;8.57;68.32
77889;BME280;67082;41.704;44.768;2023-03-08T02:12:26;96192.81;;;8.54;68.36
77889;BME280;67082;41.704;44.768;2023-03-08T02:14:56;96191.69;;;8.51;67.98
77889;BME280;67082;41.704;44.768;2023-03-08T02:17:26;96204.28;;;8.52;68.64
77889;BME280;67082;41.704;44.768;2023-03-08T02:20:12;96205.00;;;8.56;68.16
77889;BME280;67082;41.704;44.768;2023-03-08T02:22:43;96201.81;;;8.58;68.13
77889;BME280;67082;41.704;44.768;2023-03-08T02:25:17;96206.97;;;8.56;67.98
77889;BME280;67082;41.704;44.768;2023-03-08T02:27:46;96204.03;;;8.47;68.82
77889;BME280;67082;41.704;44.768;2023-03-08T02:30:26;96203.88;;;8.54;68.88
77889;BME280;67082;41.704;44.768;2023-03-08T02:32:54;96201.69;;;8.45;69.16
77889;BME280;67082;41.704;44.768;2023-03-08T02:35:22;96205.16;;;8.49;69.71
77889;BME280;67082;41.704;44.768;2023-03-08T02:37:50;96205.22;;;8.46;69.88
77889;BME280;67082;41.704;44.768;2023-03-08T02:40:20;96203.44;;;8.36;69.21
77889;BME280;67082;41.704;44.768;2023-03-08T02:42:48;96199.81;;;8.39;69.05
77889;BME280;67082;41.704;44.768;2023-03-08T02:45:19;96207.75;;;8.37;68.79
77889;BME280;67082;41.704;44.768;2023-03-08T02:47:48;96209.72;;;8.36;68.89
77889;BME280;67082;41.704;44.768;2023-03-08T02:50:18;96216.84;;;8.37;68.43
77889;BME280;67082;41.704;44.768;2023-03-08T02:52:46;96215.06;;;8.47;67.38
77889;BME280;67082;41.704;44.768;2023-03-08T02:55:15;96208.75;;;8.46;67.99
77889;BME280;67082;41.704;44.768;2023-03-08T02:57:43;96217.09;;;8.43;67.59
77889;BME280;67082;41.704;44.768;2023-03-08T03:00:15;96212.72;;;8.45;67.98
77889;BME280;67082;41.704;44.768;2023-03-08T03:02:43;96200.53;;;8.43;67.68
77889;BME280;67082;41.704;44.768;2023-03-08T03:05:11;96198.41;;;8.31;68.35
77889;BME280;67082;41.704;44.768;2023-03-08T03:07:42;96214.00;;;8.41;68.49
77889;BME280;67082;41.704;44.768;2023-03-08T03:10:20;96210.31;;;8.28;68.52
77889;BME280;67082;41.704;44.768;2023-03-08T03:12:48;96197.69;;;8.27;67.79
77889;BME280;67082;41.704;44.768;2023-03-08T03:15:19;96212.00;;;8.41;67.86
77889;BME280;67082;41.704;44.768;2023-03-08T03:17:51;96211.59;;;8.43;69.03
77889;BME280;67082;41.704;44.768;2023-03-08T03:20:25;96208.47;;;8.41;68.35
77889;BME280;67082;41.704;44.768;2023-03-08T03:22:53;96207.28;;;8.42;69.06
77889;BME280;67082;41.704;44.768;2023-03-08T03:25:27;96214.75;;;8.41;67.95
77889;BME280;67082;41.704;44.768;2023-03-08T03:27:56;96200.28;;;8.37;68.28
77889;BME280;67082;41.704;44.768;2023-03-08T03:30:27;96209.25;;;8.41;68.00
77889;BME280;67082;41.704;44.768;2023-03-08T03:32:56;96217.09;;;8.43;68.55
77889;BME280;67082;41.704;44.768;2023-03-08T03:35:29;96212.09;;;8.38;69.02
77889;BME280;67082;41.704;44.768;2023-03-08T03:37:57;96214.84;;;8.38;68.91
77889;BME280;67082;41.704;44.768;2023-03-08T03:40:25;96213.22;;;8.40;68.29
77889;BME280;67082;41.704;44.768;2023-03-08T03:42:59;96214.00;;;8.41;68.84
77889;BME280;67082;41.704;44.768;2023-03-08T03:45:28;96210.88;;;8.39;68.83
77889;BME280;67082;41.704;44.768;2023-03-08T03:48:07;96191.28;;;8.33;68.07
77889;BME280;67082;41.704;44.768;2023-03-08T03:50:37;96208.41;;;8.44;68.26
77889;BME280;67082;41.704;44.768;2023-03-08T03:53:10;96216.88;;;8.53;67.01
77889;BME280;67082;41.704;44.768;2023-03-08T03:55:39;96212.09;;;8.38;67.90
77889;BME280;67082;41.704;44.768;2023-03-08T03:58:07;96220.84;;;8.33;68.19
77889;BME280;67082;41.704;44.768;2023-03-08T04:00:36;96219.78;;;8.27;67.90
77889;BME280;67082;41.704;44.768;2023-03-08T04:03:13;96222.91;;;8.29;68.64
77889;BME280;67082;41.704;44.768;2023-03-08T04:05:42;96219.59;;;8.37;68.04
77889;BME280;67082;41.704;44.768;2023-03-08T04:08:10;96218.53;;;8.31;68.32
77889;BME280;67082;41.704;44.768;2023-03-08T04:10:41;96227.81;;;8.41;68.01
77889;BME280;67082;41.704;44.768;2023-03-08T04:13:11;96216.69;;;8.44;67.76
77889;BME280;67082;41.704;44.768;2023-03-08T04:15:41;96226.44;;;8.49;67.31
77889;BME280;67082;41.704;44.768;2023-03-08T04:18:12;96225.06;;;8.41;67.83
77889;BME280;67082;41.704;44.768;2023-03-08T04:20:44;96234.25;;;8.34;68.23
77889;BME280;67082;41.704;44.768;2023-03-08T04:23:14;96231.41;;;8.38;67.73
77889;BME280;67082;41.704;44.768;2023-03-08T04:25:46;96228.78;;;8.31;68.13
77889;BME280;67082;41.704;44.768;2023-03-08T04:28:15;96229.00;;;8.20;68.87
77889;BME280;67082;41.704;44.768;2023-03-08T04:30:44;96228.56;;;8.22;68.82
77889;BME280;67082;41.704;44.768;2023-03-08T04:33:15;96224.63;;;8.23;68.50
77889;BME280;67082;41.704;44.768;2023-03-08T04:35:48;96239.63;;;8.41;68.63
77889;BME280;67082;41.704;44.768;2023-03-08T04:38:19;96242.94;;;8.33;68.92
77889;BME280;67082;41.704;44.768;2023-03-08T04:40:52;96255.13;;;8.35;69.46
77889;BME280;67082;41.704;44.768;2023-03-08T04:43:46;96252.59;;;8.44;69.18
77889;BME280;67082;41.704;44.768;2023-03-08T04:46:18;96258.59;;;8.39;69.48
77889;BME280;67082;41.704;44.768;2023-03-08T04:48:46;96243.09;;;8.26;69.92
77889;BME280;67082;41.704;44.768;2023-03-08T04:51:16;96259.75;;;8.42;69.11
77889;BME280;67082;41.704;44.768;2023-03-08T04:53:46;96240.06;;;8.40;69.11
77889;BME280;67082;41.704;44.768;2023-03-08T04:56:15;96249.81;;;8.44;69.35
77889;BME280;67082;41.704;44.768;2023-03-08T04:58:45;96253.66;;;8.50;68.87
77889;BME280;67082;41.704;44.768;2023-03-08T05:01:18;96251.63;;;8.54;69.14
77889;BME280;67082;41.704;44.768;2023-03-08T05:03:48;96247.34;;;8.50;69.34
77889;BME280;67082;41.704;44.768;2023-03-08T05:06:24;96247.06;;;8.44;69.58
77889;BME280;67082;41.704;44.768;2023-03-08T05:08:55;96247.13;;;8.41;69.05
77889;BME280;67082;41.704;44.768;2023-03-08T05:11:26;96255.94;;;8.55;68.82
77889;BME280;67082;41.704;44.768;2023-03-08T05:13:57;96261.00;;;8.57;68.63
77889;BME280;67082;41.704;44.768;2023-03-08T05:16:28;96240.97;;;8.53;69.42
77889;BME280;67082;41.704;44.768;2023-03-08T05:18:56;96245.59;;;8.40;70.29
77889;BME280;67082;41.704;44.768;2023-03-08T05:21:30;96262.44;;;8.65;69.44
77889;BME280;67082;41.704;44.768;2023-03-08T05:24:01;96252.72;;;8.57;69.40
77889;BME280;67082;41.704;44.768;2023-03-08T05:26:33;96268.59;;;8.72;69.66
77889;BME280;67082;41.704;44.768;2023-03-08T05:29:01;96266.59;;;8.73;69.59
77889;BME280;67082;41.704;44.768;2023-03-08T05:31:32;96261.06;;;8.73;69.44
77889;BME280;67082;41.704;44.768;2023-03-08T05:34:03;96256.84;;;8.49;70.39
77889;BME280;67082;41.704;44.768;2023-03-08T05:36:37;96258.59;;;8.39;69.96
77889;BME280;67082;41.704;44.768;2023-03-08T05:39:07;96244.00;;;8.39;70.21
77889;BME280;67082;41.704;44.768;2023-03-08T05:41:56;96255.47;;;8.57;69.74
77889;BME280;67082;41.704;44.768;2023-03-08T05:44:31;96264.84;;;8.63;69.72
77889;BME280;67082;41.704;44.768;2023-03-08T05:47:04;96250.81;;;8.54;69.78
77889;BME280;67082;41.704;44.768;2023-03-08T05:49:32;96276.81;;;8.76;68.93
77889;BME280;67082;41.704;44.768;2023-03-08T05:52:02;96272.78;;;8.80;68.93
77889;BME280;67082;41.704;44.768;2023-03-08T05:54:31;96275.94;;;8.79;68.54
77889;BME280;67082;41.704;44.768;2023-03-08T05:57:04;96269.94;;;8.84;68.71
77889;BME280;67082;41.704;44.768;2023-03-08T05:59:32;96272.91;;;8.73;69.43
77889;BME280;67082;41.704;44.768;2023-03-08T06:02:03;96286.44;;;8.68;69.90
77889;BME280;67082;41.704;44.768;2023-03-08T06:04:36;96274.41;;;8.58;69.51
77889;BME280;67082;41.704;44.768;2023-03-08T06:07:05;96275.53;;;8.61;69.78
77889;BME280;67082;41.704;44.768;2023-03-08T06:09:41;96281.94;;;8.77;68.80
77889;BME280;67082;41.704;44.768;2023-03-08T06:12:14;96278.78;;;8.75;68.79
77889;BME280;67082;41.704;44.768;2023-03-08T06:14:45;96287.72;;;8.83;68.04
77889;BME280;67082;41.704;44.768;2023-03-08T06:17:16;96275.66;;;8.93;67.71
77889;BME280;67082;41.704;44.768;2023-03-08T06:19:49;96270.59;;;9.27;66.84
77889;BME280;67082;41.704;44.768;2023-03-08T06:22:18;96270.50;;;9.30;65.77
77889;BME280;67082;41.704;44.768;2023-03-08T06:24:47;96265.44;;;9.45;65.29
77889;BME280;67082;41.704;44.768;2023-03-08T06:27:27;96266.28;;;9.42;65.14
77889;BME280;67082;41.704;44.768;2023-03-08T06:30:00;96262.50;;;9.52;64.68
77889;BME280;67082;41.704;44.768;2023-03-08T06:32:31;96255.50;;;9.79;63.87
77889;BME280;67082;41.704;44.768;2023-03-08T06:35:00;96252.31;;;9.81;63.96
77889;BME280;67082;41.704;44.768;2023-03-08T06:37:33;96254.38;;;9.77;63.89
77889;BME280;67082;41.704;44.768;2023-03-08T06:40:06;96252.38;;;9.77;63.86
77889;BME280;67082;41.704;44.768;2023-03-08T06:42:36;96244.19;;;9.74;63.32
77889;BME280;67082;41.704;44.768;2023-03-08T06:45:13;96252.47;;;9.58;64.69
77889;BME280;67082;41.704;44.768;2023-03-08T06:47:43;96251.84;;;9.50;65.73
77889;BME280;67082;41.704;44.768;2023-03-08T06:50:13;96255.94;;;9.78;65.55
77889;BME280;67082;41.704;44.768;2023-03-08T06:52:44;96253.84;;;9.98;64.45
77889;BME280;67082;41.704;44.768;2023-03-08T06:55:15;96249.88;;;9.99;64.85
77889;BME280;67082;41.704;44.768;2023-03-08T06:57:43;96251.31;;;10.03;64.80
77889;BME280;67082;41.704;44.768;2023-03-08T07:00:14;96238.78;;;9.99;63.94
77889;BME280;67082;41.704;44.768;2023-03-08T07:02:42;96230.78;;;10.04;64.08
77889;BME280;67082;41.704;44.768;2023-03-08T07:05:11;96237.09;;;10.05;64.34
77889;BME280;67082;41.704;44.768;2023-03-08T07:07:42;96233.63;;;9.85;63.65
77889;BME280;67082;41.704;44.768;2023-03-08T07:10:13;96224.94;;;9.99;64.42
77889;BME280;67082;41.704;44.768;2023-03-08T07:12:50;96235.34;;;10.11;64.14
77889;BME280;67082;41.704;44.768;2023-03-08T07:15:21;96239.44;;;10.35;63.50
77889;BME280;67082;41.704;44.768;2023-03-08T07:17:53;96233.72;;;10.42;62.93
77889;BME280;67082;41.704;44.768;2023-03-08T07:20:26;96223.31;;;10.17;62.87
77889;BME280;67082;41.704;44.768;2023-03-08T07:22:55;96226.22;;;10.26;62.72
77889;BME280;67082;41.704;44.768;2023-03-08T07:25:23;96227.19;;;10.20;63.47
77889;BME280;67082;41.704;44.768;2023-03-08T07:27:52;96227.09;;;10.52;62.25
77889;BME280;67082;41.704;44.768;2023-03-08T07:30:20;96224.78;;;10.50;62.06
77889;BME280;67082;41.704;44.768;2023-03-08T07:32:51;96226.91;;;10.59;61.39
77889;BME280;67082;41.704;44.768;2023-03-08T07:35:20;96222.66;;;10.54;62.03
77889;BME280;67082;41.704;44.768;2023-03-08T07:37:48;96209.81;;;10.48;61.93
77889;BME280;67082;41.704;44.768;2023-03-08T07:40:16;96206.41;;;10.56;61.21
77889;BME280;67082;41.704;44.768;2023-03-08T07:42:45;96207.00;;;10.35;61.79
77889;BME280;67082;41.704;44.768;2023-03-08T07:45:37;96208.34;;;10.43;61.56
77889;BME280;67082;41.704;44.768;2023-03-08T07:48:09;96188.38;;;10.77;60.10
77889;BME280;67082;41.704;44.768;2023-03-08T07:50:37;96193.28;;;10.97;59.89
77889;BME280;67082;41.704;44.768;2023-03-08T07:53:05;96188.28;;;11.05;59.12
77889;BME280;67082;41.704;44.768;2023-03-08T07:55:36;96174.00;;;11.06;58.77
77889;BME280;67082;41.704;44.768;2023-03-08T07:58:06;96182.00;;;11.04;59.10
77889;BME280;67082;41.704;44.768;2023-03-08T08:00:34;96179.75;;;11.24;58.12
77889;BME280;67082;41.704;44.768;2023-03-08T08:03:02;96169.56;;;11.34;58.05
77889;BME280;67082;41.704;44.768;2023-03-08T08:05:31;96177.31;;;11.26;58.01
77889;BME280;67082;41.704;44.768;2023-03-08T08:07:59;96167.44;;;11.25;57.74
77889;BME280;67082;41.704;44.768;2023-03-08T08:10:28;96160.47;;;11.33;57.23
77889;BME280;67082;41.704;44.768;2023-03-08T08:12:56;96162.09;;;11.43;57.21
77889;BME280;67082;41.704;44.768;2023-03-08T08:15:24;96166.00;;;11.58;56.69
77889;BME280;67082;41.704;44.768;2023-03-08T08:17:53;96155.00;;;11.55;56.16
77889;BME280;67082;41.704;44.768;2023-03-08T08:20:22;96147.38;;;11.59;56.53
77889;BME280;67082;41.704;44.768;2023-03-08T08:22:53;96152.25;;;11.67;56.24
77889;BME280;67082;41.704;44.768;2023-03-08T08:25:21;96152.44;;;11.60;56.01
77889;BME280;67082;41.704;44.768;2023-03-08T08:27:49;96143.41;;;11.81;55.74
77889;BME280;67082;41.704;44.768;2023-03-08T08:30:18;96144.41;;;11.87;55.31
77889;BME280;67082;41.704;44.768;2023-03-08T08:32:47;96140.09;;;11.74;55.48
77889;BME280;67082;41.704;44.768;2023-03-08T08:35:15;96138.13;;;11.62;56.24
77889;BME280;67082;41.704;44.768;2023-03-08T08:37:43;96125.81;;;11.50;56.25
77889;BME280;67082;41.704;44.768;2023-03-08T08:40:13;96132.81;;;11.67;55.87
77889;BME280;67082;41.704;44.768;2023-03-08T08:42:42;96116.34;;;11.73;55.35
77889;BME280;67082;41.704;44.768;2023-03-08T08:45:12;96112.75;;;11.85;54.95
77889;BME280;67082;41.704;44.768;2023-03-08T08:47:42;96110.91;;;11.69;55.52
77889;BME280;67082;41.704;44.768;2023-03-08T08:50:12;96110.00;;;11.72;55.71
77889;BME280;67082;41.704;44.768;2023-03-08T08:52:40;96096.63;;;11.92;55.28
77889;BME280;67082;41.704;44.768;2023-03-08T08:55:09;96090.41;;;11.88;55.60
77889;BME280;67082;41.704;44.768;2023-03-08T08:57:38;96084.72;;;11.92;55.08
77889;BME280;67082;41.704;44.768;2023-03-08T09:00:07;96084.19;;;11.84;55.55
77889;BME280;67082;41.704;44.768;2023-03-08T09:02:37;96068.56;;;11.31;56.64
77889;BME280;67082;41.704;44.768;2023-03-08T09:05:05;96076.31;;;11.49;56.46
77889;BME280;67082;41.704;44.768;2023-03-08T09:07:33;96061.00;;;11.44;56.40
77889;BME280;67082;41.704;44.768;2023-03-08T09:10:04;96065.53;;;11.51;56.45
77889;BME280;67082;41.704;44.768;2023-03-08T09:12:33;96063.19;;;11.49;56.49
77889;BME280;67082;41.704;44.768;2023-03-08T09:15:01;96055.94;;;11.30;57.04
77889;BME280;67082;41.704;44.768;2023-03-08T09:17:31;96047.53;;;11.55;56.54
77889;BME280;67082;41.704;44.768;2023-03-08T09:19:59;96036.94;;;11.41;56.52
77889;BME280;67082;41.704;44.768;2023-03-08T09:22:29;96035.56;;;11.46;56.40
77889;BME280;67082;41.704;44.768;2023-03-08T09:24:57;96032.59;;;11.40;56.93
77889;BME280;67082;41.704;44.768;2023-03-08T09:27:26;96027.81;;;11.41;56.53
77889;BME280;67082;41.704;44.768;2023-03-08T09:29:54;96024.72;;;11.39;56.47
77889;BME280;67082;41.704;44.768;2023-03-08T09:32:22;96020.72;;;11.40;56.54
77889;BME280;67082;41.704;44.768;2023-03-08T09:34:51;96014.81;;;11.50;56.10
77889;BME280;67082;41.704;44.768;2023-03-08T09:37:19;96008.56;;;11.25;57.25
77889;BME280;67082;41.704;44.768;2023-03-08T09:39:50;96002.09;;;11.40;56.99
77889;BME280;67082;41.704;44.768;2023-03-08T09:42:37;95990.66;;;11.38;56.88
77889;BME280;67082;41.704;44.768;2023-03-08T09:45:21;95983.16;;;11.60;56.73
77889;BME280;67082;41.704;44.768;2023-03-08T09:52:56;95968.66;;;11.10;58.21
77889;BME280;67082;41.704;44.768;2023-03-08T09:55:29;95956.00;;;11.21;57.99
77889;BME280;67082;41.704;44.768;2023-03-08T09:58:02;95956.84;;;11.31;57.59
77889;BME280;67082;41.704;44.768;2023-03-08T10:00:35;95955.09;;;11.58;57.28
77889;BME280;67082;41.704;44.768;2023-03-08T10:09:27;95932.78;;;11.49;57.44
77889;BME280;67082;41.704;44.768;2023-03-08T10:11:46;95926.66;;;11.54;57.25
77889;BME280;67082;41.704;44.768;2023-03-08T10:14:25;95910.09;;;11.42;57.32
77889;BME280;67082;41.704;44.768;2023-03-08T10:16:58;95900.13;;;11.53;57.07
77889;BME280;67082;41.704;44.768;2023-03-08T10:19:37;95893.09;;;11.61;56.76
77889;BME280;67082;41.704;44.768;2023-03-08T10:22:14;95895.94;;;11.70;56.51
77889;BME280;67082;41.704;44.768;2023-03-08T10:24:51;95891.66;;;11.57;56.59
77889;BME280;67082;41.704;44.768;2023-03-08T10:27:23;95876.56;;;11.58;56.82
77889;BME280;67082;41.704;44.768;2023-03-08T10:29:53;95881.06;;;11.86;56.04
77889;BME280;67082;41.704;44.768;2023-03-08T10:32:23;95872.22;;;12.09;55.85
77889;BME280;67082;41.704;44.768;2023-03-08T10:34:59;95874.97;;;12.00;55.81
77889;BME280;67082;41.704;44.768;2023-03-08T10:37:31;95855.00;;;11.83;55.85
77889;BME280;67082;41.704;44.768;2023-03-08T10:40:01;95858.13;;;11.94;55.72
77889;BME280;67082;41.704;44.768;2023-03-08T10:42:34;95863.13;;;12.08;55.75
77889;BME280;67082;41.704;44.768;2023-03-08T10:45:13;95858.72;;;11.89;55.61
77889;BME280;67082;41.704;44.768;2023-03-08T10:47:59;95858.78;;;12.07;55.37
77889;BME280;67082;41.704;44.768;2023-03-08T10:50:33;95850.50;;;12.16;55.77
77889;BME280;67082;41.704;44.768;2023-03-08T10:53:19;95853.25;;;12.07;56.18
77889;BME280;67082;41.704;44.768;2023-03-08T10:55:49;95831.25;;;11.82;56.43
77889;BME280;67082;41.704;44.768;2023-03-08T11:00:55;95833.50;;;12.05;56.37
77889;BME280;67082;41.704;44.768;2023-03-08T11:03:25;95835.09;;;11.76;57.15
77889;BME280;67082;41.704;44.768;2023-03-08T11:08:35;95831.38;;;11.79;57.50
77889;BME280;67082;41.704;44.768;2023-03-08T11:11:13;95828.69;;;11.66;57.66
77889;BME280;67082;41.704;44.768;2023-03-08T11:13:45;95816.47;;;11.85;57.63
77889;BME280;67082;41.704;44.768;2023-03-08T11:16:36;95827.59;;;11.94;57.61
77889;BME280;67082;41.704;44.768;2023-03-08T11:20:11;95824.22;;;11.99;57.25
77889;BME280;67082;41.704;44.768;2023-03-08T11:22:37;95832.22;;;11.97;57.08
77889;BME280;67082;41.704;44.768;2023-03-08T11:28:37;95824.56;;;12.10;57.10
77889;BME280;67082;41.704;44.768;2023-03-08T11:31:13;95804.03;;;12.08;56.49
77889;BME280;67082;41.704;44.768;2023-03-08T11:39:29;95806.88;;;12.35;54.84
77889;BME280;67082;41.704;44.768;2023-03-08T12:01:23;95798.13;;;12.72;52.39
77889;BME280;67082;41.704;44.768;2023-03-08T12:03:55;95807.38;;;12.60;52.82
77889;BME280;67082;41.704;44.768;2023-03-08T12:06:32;95806.75;;;12.56;53.27
77889;BME280;67082;41.704;44.768;2023-03-08T12:12:04;95796.88;;;12.64;53.38
77889;BME280;67082;41.704;44.768;2023-03-08T12:14:56;95799.66;;;12.55;53.28
77889;BME280;67082;41.704;44.768;2023-03-08T12:17:35;95805.22;;;12.55;53.92
77889;BME280;67082;41.704;44.768;2023-03-08T12:20:13;95806.59;;;12.60;52.97
77889;BME280;67082;41.704;44.768;2023-03-08T12:33:10;95799.88;;;12.97;51.31
77889;BME280;67082;41.704;44.768;2023-03-08T12:36:04;95789.16;;;12.86;51.30
77889;BME280;67082;41.704;44.768;2023-03-08T12:41:03;95774.94;;;12.84;51.41
77889;BME280;67082;41.704;44.768;2023-03-08T12:43:34;95776.50;;;12.94;51.40
77889;BME280;67082;41.704;44.768;2023-03-08T12:46:06;95753.31;;;12.79;51.40
77889;BME280;67082;41.704;44.768;2023-03-08T12:48:38;95786.25;;;12.99;50.76
77889;BME280;67082;41.704;44.768;2023-03-08T12:58:56;95759.03;;;12.85;50.36
77889;BME280;67082;41.704;44.768;2023-03-08T13:01:38;95761.03;;;12.84;49.99
77889;BME280;67082;41.704;44.768;2023-03-08T13:21:32;95744.81;;;12.92;51.57
77889;BME280;67082;41.704;44.768;2023-03-08T13:26:48;95748.97;;;12.87;52.03
77889;BME280;67082;41.704;44.768;2023-03-08T13:29:19;95737.56;;;12.76;51.57
77889;BME280;67082;41.704;44.768;2023-03-08T13:31:47;95740.66;;;12.78;52.11
77889;BME280;67082;41.704;44.768;2023-03-08T13:34:31;95736.50;;;12.65;52.43
77889;BME280;67082;41.704;44.768;2023-03-08T13:36:59;95721.97;;;12.70;52.19
77889;BME280;67082;41.704;44.768;2023-03-08T13:39:29;95739.13;;;12.68;52.36
77889;BME280;67082;41.704;44.768;2023-03-08T13:42:06;95735.41;;;12.62;52.60
77889;BME280;67082;41.704;44.768;2023-03-08T13:44:36;95735.25;;;12.66;52.19
77889;BME280;67082;41.704;44.768;2023-03-08T13:47:32;95728.16;;;12.65;52.49
77889;BME280;67082;41.704;44.768;2023-03-08T13:50:01;95729.84;;;12.53;52.59
77889;BME280;67082;41.704;44.768;2023-03-08T13:52:32;95726.13;;;12.47;53.07
77889;BME280;67082;41.704;44.768;2023-03-08T13:55:06;95724.44;;;12.32;53.63
77889;BME280;67082;41.704;44.768;2023-03-08T13:57:36;95724.59;;;12.46;53.81
77889;BME280;67082;41.704;44.768;2023-03-08T14:02:46;95717.34;;;12.49;54.01
77889;BME280;67082;41.704;44.768;2023-03-08T14:05:26;95719.53;;;12.45;54.24
77889;BME280;67082;41.704;44.768;2023-03-08T14:08:03;95719.66;;;12.41;54.24
77889;BME280;67082;41.704;44.768;2023-03-08T14:10:45;95712.72;;;12.37;54.33
77889;BME280;67082;41.704;44.768;2023-03-08T14:13:19;95715.66;;;12.42;54.21
77889;BME280;67082;41.704;44.768;2023-03-08T14:15:52;95712.88;;;12.51;54.28
77889;BME280;67082;41.704;44.768;2023-03-08T14:18:28;95707.00;;;12.49;54.18
77889;BME280;67082;41.704;44.768;2023-03-08T14:21:19;95709.78;;;12.58;54.11
77889;BME280;67082;41.704;44.768;2023-03-08T14:23:55;95719.66;;;12.50;54.25
77889;BME280;67082;41.704;44.768;2023-03-08T14:26:33;95723.69;;;12.49;54.67
77889;BME280;67082;41.704;44.768;2023-03-08T14:29:10;95710.25;;;12.48;54.24
77889;BME280;67082;41.704;44.768;2023-03-08T14:34:30;95705.75;;;12.41;53.88
77889;BME280;67082;41.704;44.768;2023-03-08T14:37:23;95708.84;;;12.34;54.18
77889;BME280;67082;41.704;44.768;2023-03-08T14:39:54;95710.25;;;12.30;54.18
77889;BME280;67082;41.704;44.768;2023-03-08T14:44:55;95708.88;;;12.25;54.58
77889;BME280;67082;41.704;44.768;2023-03-08T14:47:30;95708.22;;;12.12;54.05
77889;BME280;67082;41.704;44.768;2023-03-08T14:52:43;95708.22;;;12.03;54.25
77889;BME280;67082;41.704;44.768;2023-03-08T14:55:24;95714.06;;;11.96;54.85
77889;BME280;67082;41.704;44.768;2023-03-08T14:57:58;95727.03;;;11.99;54.54
77889;BME280;67082;41.704;44.768;2023-03-08T15:00:28;95721.91;;;11.98;54.81
77889;BME280;67082;41.704;44.768;2023-03-08T15:02:58;95724.69;;;11.98;54.76
77889;BME280;67082;41.704;44.768;2023-03-08T15:05:27;95716.22;;;11.92;54.68